Time;durP1;ratioP1;P1;durP2;ratioP2;P2;SDS_P1;SDS_P2;PMS_P1;PMS_P2;Temp;Humidity;BMP_temperature;BMP_pressure;BME280_temperature;BME280_humidity;BME280_pressure;Samples;Min_cycle;Max_cycle;Signal;HPM_P1;HPM_P2
2022/04/06 00:01:04;;;;;;;7.83;4.20;;;;;;;10.17;61.40;99866.38;5409816;32;34800;-77
2022/04/06 00:04:06;;;;;;;8.93;4.20;;;;;;;10.16;62.04;99862.06;5417517;32;35174;-78
2022/04/06 00:07:09;;;;;;;8.87;3.80;;;;;;;11.67;56.56;99849.44;5400923;32;34772;-77
2022/04/06 00:10:12;;;;;;;8.63;4.13;;;;;;;11.63;55.90;99842.63;5394327;32;34179;-76
2022/04/06 00:13:15;;;;;;;7.83;4.10;;;;;;;11.17;58.15;99859.91;5396730;32;35638;-76
2022/04/06 00:16:17;;;;;;;8.47;4.20;;;;;;;11.23;58.01;99860.44;5396442;32;34624;-76
2022/04/06 00:19:19;;;;;;;10.13;4.80;;;;;;;10.79;59.78;99866.09;5409667;32;34575;-76
2022/04/06 00:22:21;;;;;;;8.17;4.50;;;;;;;11.73;56.50;99864.91;5402396;32;44816;-76
2022/04/06 00:25:24;;;;;;;9.10;4.93;;;;;;;10.66;59.90;99875.50;5410749;32;34739;-76
2022/04/06 00:28:26;;;;;;;10.20;5.10;;;;;;;10.17;62.07;99876.88;5401116;32;35375;-78
2022/04/06 00:31:30;;;;;;;10.17;4.67;;;;;;;10.89;59.48;99874.41;5403498;32;34898;-76
2022/04/06 00:37:52;;;;;;;11.17;5.80;;;;;;;10.18;62.83;99873.38;5399513;32;44597;-76
2022/04/06 00:40:55;;;;;;;11.23;5.30;;;;;;;10.24;63.02;99879.22;5412484;32;35365;-77
2022/04/06 00:44:17;;;;;;;11.47;5.80;;;;;;;11.45;58.08;99870.72;5399736;32;34209;-76
2022/04/06 00:47:19;;;;;;;13.33;6.07;;;;;;;9.93;63.45;99877.09;5396548;32;34724;-76
2022/04/06 00:50:23;;;;;;;10.93;5.93;;;;;;;10.90;60.36;99873.47;5415607;32;43153;-76
2022/04/06 00:53:26;;;;;;;11.47;5.67;;;;;;;10.73;60.96;99890.06;5399471;32;34602;-76
2022/04/06 00:56:29;;;;;;;11.18;5.55;;;;;;;11.48;57.73;99885.53;5405987;32;35088;-76
2022/04/06 00:59:31;;;;;;;11.43;5.73;;;;;;;10.91;59.63;99890.97;5398531;32;34899;-76
2022/04/06 01:02:34;;;;;;;10.30;5.37;;;;;;;10.79;59.97;99881.88;5397535;32;34186;-77
2022/04/06 01:05:37;;;;;;;10.90;6.15;;;;;;;10.30;62.18;99881.56;5388261;32;35298;-76
2022/04/06 01:08:39;;;;;;;10.40;5.50;;;;;;;10.42;61.36;99888.00;5377527;32;35202;-76
2022/04/06 01:11:44;;;;;;;11.43;5.37;;;;;;;10.31;61.76;99879.78;5412098;32;34457;-76
2022/04/06 01:14:47;;;;;;;10.03;5.20;;;;;;;11.29;58.58;99872.44;5385349;32;36165;-76
2022/04/06 01:17:50;;;;;;;9.25;4.90;;;;;;;11.46;57.38;99872.44;5417145;32;35299;-77
2022/04/06 01:20:52;;;;;;;10.07;5.30;;;;;;;11.31;57.83;99868.78;5392033;32;47171;-76
2022/04/06 01:23:54;;;;;;;11.97;5.13;;;;;;;11.06;58.54;99876.19;5403131;32;35663;-76
2022/04/06 01:27:00;;;;;;;10.70;4.97;;;;;;;10.84;59.72;99877.25;5406387;32;35069;-76
2022/04/06 01:30:03;;;;;;;9.53;4.77;;;;;;;11.18;58.32;99864.22;5388467;32;35028;-76
2022/04/06 01:33:06;;;;;;;10.32;4.93;;;;;;;10.50;60.44;99870.13;5413049;32;34209;-76
2022/04/06 01:36:08;;;;;;;8.57;4.37;;;;;;;10.74;59.38;99877.75;5399901;32;34900;-76
2022/04/06 01:39:10;;;;;;;9.90;4.70;;;;;;;10.61;60.94;99872.22;5407882;32;35166;-76
2022/04/06 01:42:17;;;;;;;9.23;4.87;;;;;;;11.34;57.94;99863.41;5400462;32;34646;-76
2022/04/06 01:45:19;;;;;;;7.43;3.90;;;;;;;11.47;57.18;99862.78;5386554;32;35000;-76
2022/04/06 01:48:21;;;;;;;8.00;4.10;;;;;;;11.43;57.23;99871.75;5408922;32;44985;-77
2022/04/06 01:55:08;;;;;;;8.10;3.67;;;;;;;11.18;57.97;99861.59;5326559;32;35115;-76
2022/04/06 01:58:12;;;;;;;8.97;3.60;;;;;;;11.06;58.44;99863.91;5295290;32;37672;-76
2022/04/06 02:01:14;;;;;;;6.80;3.58;;;;;;;11.18;57.98;99862.44;5382733;32;35574;-76
2022/04/06 02:04:16;;;;;;;10.03;3.70;;;;;;;11.05;58.55;99863.97;5409967;32;34481;-76
2022/04/06 02:07:19;;;;;;;7.03;3.73;;;;;;;11.29;57.93;99864.56;5399971;32;34843;-76
2022/04/06 02:10:21;;;;;;;7.40;4.00;;;;;;;11.58;56.85;99860.41;5414640;32;37911;-76
2022/04/06 02:13:23;;;;;;;8.93;3.57;;;;;;;11.46;56.91;99859.25;5378345;32;35186;-75
2022/04/06 02:16:27;;;;;;;7.72;3.83;;;;;;;11.22;57.64;99864.00;5412182;32;35598;-75
2022/04/06 02:19:31;;;;;;;7.77;3.77;;;;;;;10.93;58.73;99864.59;5382927;32;36826;-77
2022/04/06 02:22:33;;;;;;;9.80;3.65;;;;;;;11.20;57.83;99860.59;5405959;32;36361;-76
2022/04/06 02:25:35;;;;;;;7.83;3.67;;;;;;;11.18;57.98;99865.06;5415688;32;35162;-77
2022/04/06 02:28:37;;;;;;;9.20;3.80;;;;;;;11.02;58.58;99859.75;5395876;32;35188;-76
2022/04/06 02:31:39;;;;;;;7.50;3.80;;;;;;;10.92;58.86;99855.00;5407506;32;34614;-76
2022/04/06 02:34:42;;;;;;;8.23;3.80;;;;;;;10.61;59.72;99860.88;5403034;32;35180;-76
2022/04/06 02:37:44;;;;;;;8.30;4.03;;;;;;;11.29;57.63;99854.88;5405996;32;34800;-77
2022/04/06 02:40:47;;;;;;;8.73;4.30;;;;;;;11.14;58.03;99853.00;5410889;32;37300;-77
2022/04/06 02:43:49;;;;;;;9.47;3.90;;;;;;;11.14;58.03;99850.38;5396190;32;35142;-75
2022/04/06 02:46:51;;;;;;;8.40;4.13;;;;;;;11.08;58.16;99863.84;5424045;32;44513;-76
2022/04/06 02:49:53;;;;;;;9.53;4.27;;;;;;;10.99;58.66;99866.91;5397223;32;35055;-77
2022/04/06 02:52:55;;;;;;;8.33;4.37;;;;;;;10.80;59.13;99869.59;5414845;32;35539;-75
2022/04/06 02:55:58;;;;;;;7.03;3.70;;;;;;;10.61;59.77;99869.59;5371941;32;35096;-75
2022/04/06 02:59:01;;;;;;;6.37;3.40;;;;;;;11.12;57.49;99862.75;5392627;32;35257;-75
2022/04/06 03:02:03;;;;;;;8.10;3.95;;;;;;;11.04;58.05;99855.25;5412575;32;34696;-75
2022/04/06 03:05:06;;;;;;;11.20;5.37;;;;;;;10.83;58.80;99864.19;5393030;32;35111;-76
2022/04/06 03:08:08;;;;;;;9.60;4.60;;;;;;;10.72;59.36;99875.22;5409583;32;35896;-76
2022/04/06 03:11:10;;;;;;;8.43;4.10;;;;;;;10.88;58.85;99882.34;5394625;32;36514;-76
2022/04/06 03:14:13;;;;;;;8.77;4.40;;;;;;;10.74;59.17;99883.00;5411409;32;35498;-75
2022/04/06 03:17:16;;;;;;;7.90;4.07;;;;;;;10.70;59.51;99882.34;5387432;32;35109;-76
2022/04/06 03:20:19;;;;;;;9.05;4.37;;;;;;;10.87;59.09;99872.78;5414285;32;34782;-75
2022/04/06 03:23:21;;;;;;;8.70;4.40;;;;;;;11.05;58.45;99877.97;5384106;32;35798;-77
2022/04/06 03:26:24;;;;;;;9.18;3.20;;;;;;;11.13;58.32;99873.19;5396594;32;34243;-75
2022/04/06 03:29:26;;;;;;;6.77;3.27;;;;;;;11.30;57.54;99869.72;5404076;32;34911;-75
2022/04/06 03:32:28;;;;;;;7.43;3.70;;;;;;;11.42;56.85;99864.78;5407786;32;34531;-76
2022/04/06 03:35:32;;;;;;;5.78;3.25;;;;;;;11.71;55.70;99872.03;5395478;32;35333;-77
2022/04/06 03:38:34;;;;;;;6.40;3.30;;;;;;;11.71;55.58;99871.16;5403365;32;34122;-76
2022/04/06 03:41:36;;;;;;;7.90;3.50;;;;;;;11.57;56.02;99867.47;5387561;32;34626;-75
2022/04/06 03:44:39;;;;;;;6.37;3.27;;;;;;;11.74;55.52;99865.75;5407484;32;36042;-76
2022/04/06 03:47:42;;;;;;;6.67;3.50;;;;;;;11.56;56.14;99864.94;5402762;32;35161;-76
2022/04/06 03:50:45;;;;;;;12.53;4.23;;;;;;;11.59;56.15;99868.25;5406175;32;34144;-76
2022/04/06 03:53:47;;;;;;;7.47;3.37;;;;;;;10.65;58.95;99870.31;5402424;32;35342;-76
2022/04/06 03:56:49;;;;;;;8.37;4.27;;;;;;;11.41;56.68;99863.09;5386891;32;34209;-76
2022/04/06 03:59:52;;;;;;;9.07;3.80;;;;;;;10.69;59.29;99874.50;5393532;32;45011;-76
2022/04/06 04:02:55;;;;;;;7.53;3.53;;;;;;;10.80;58.32;99872.22;5399537;32;34221;-76
2022/04/06 04:05:57;;;;;;;10.73;4.33;;;;;;;11.30;57.31;99875.00;5395403;32;34193;-76
2022/04/06 04:08:59;;;;;;;8.40;3.70;;;;;;;11.39;57.06;99876.31;5392837;32;147264;-78
2022/04/06 04:12:03;;;;;;;8.37;4.47;;;;;;;11.82;55.33;99866.25;5414913;32;35336;-76
2022/04/06 04:15:06;;;;;;;;;;;;;;;10.47;59.42;99879.91;5385801;32;34545;-78
2022/04/06 04:18:08;;;;;;;7.53;3.50;;;;;;;11.54;56.39;99872.91;5409439;32;33493;-76
2022/04/06 04:24:31;;;;;;;9.43;4.13;;;;;;;10.80;58.00;99880.94;5404270;32;36754;-77
2022/04/06 04:27:33;;;;;;;12.13;4.87;;;;;;;11.06;57.99;99877.06;5419214;32;35210;-77
2022/04/06 04:30:35;;;;;;;9.73;4.20;;;;;;;11.80;55.93;99876.81;5401250;32;34287;-76
2022/04/06 04:33:37;;;;;;;6.97;3.30;;;;;;;11.34;56.73;99873.91;5422962;32;34354;-76
2022/04/06 04:36:40;;;;;;;10.03;3.90;;;;;;;12.20;53.88;99870.31;5393902;32;35303;-76
2022/04/06 04:39:42;;;;;;;9.20;3.90;;;;;;;11.98;54.89;99877.69;5408807;32;34528;-76
2022/04/06 04:42:44;;;;;;;6.95;3.42;;;;;;;11.95;54.20;99869.94;5397931;32;34663;-77
2022/04/06 04:45:47;;;;;;;7.77;3.53;;;;;;;12.06;54.39;99878.13;5402192;32;36451;-77
2022/04/06 04:48:49;;;;;;;7.87;4.03;;;;;;;12.47;52.85;99873.22;5416761;32;35473;-76
2022/04/06 04:51:51;;;;;;;9.37;4.10;;;;;;;12.32;53.13;99884.63;5397645;32;34279;-76
2022/04/06 04:54:53;;;;;;;8.93;4.13;;;;;;;12.33;53.17;99888.94;5412893;32;34626;-75
2022/04/06 04:57:56;;;;;;;7.17;3.40;;;;;;;12.21;53.56;99886.97;5385364;32;34634;-76
2022/04/06 05:00:58;;;;;;;12.70;4.63;;;;;;;11.81;54.70;99889.09;5419602;32;34357;-76
2022/04/06 05:04:00;;;;;;;11.13;5.00;;;;;;;11.66;55.52;99895.13;5418845;32;34138;-77
2022/04/06 05:07:03;;;;;;;9.07;4.00;;;;;;;11.48;56.30;99894.28;5415008;32;35135;-76
2022/04/06 05:10:07;;;;;;;10.73;4.57;;;;;;;12.00;54.59;99902.16;5421513;32;34381;-78
2022/04/06 05:13:09;;;;;;;;;;;;;;;12.13;53.95;99902.34;5391016;32;35245;-75
2022/04/06 05:16:11;;;;;;;8.57;4.00;;;;;;;12.15;53.85;99908.38;5408050;32;35610;-76
2022/04/06 05:19:13;;;;;;;11.60;5.57;;;;;;;11.94;54.62;99910.37;5398012;32;35332;-77
2022/04/06 05:22:16;;;;;;;9.67;5.13;;;;;;;11.98;55.20;99908.41;5418132;32;34581;-77
2022/04/06 05:25:20;;;;;;;10.40;4.70;;;;;;;12.39;53.79;99909.69;5391211;32;37209;-79
2022/04/06 05:28:22;;;;;;;10.20;4.73;;;;;;;12.90;51.97;99906.91;5397279;32;44427;-70
2022/04/06 05:31:24;;;;;;;8.47;4.40;;;;;;;13.01;51.55;99909.81;5411407;32;33955;-70
2022/04/06 05:34:27;;;;;;;10.60;4.77;;;;;;;12.11;53.81;99912.13;5416849;32;35414;-88
2022/04/06 05:37:29;;;;;;;13.07;5.43;;;;;;;12.48;53.20;99913.62;5410038;32;34808;-71
2022/04/06 05:40:31;;;;;;;13.03;5.20;;;;;;;11.78;55.03;99923.44;5412150;32;34728;-72
2022/04/06 05:43:33;;;;;;;10.73;5.47;;;;;;;12.68;53.12;99920.44;5412618;32;34256;-73
2022/04/06 05:46:35;;;;;;;12.47;5.10;;;;;;;12.47;53.54;99920.69;5400696;32;35278;-84
2022/04/06 05:49:38;;;;;;;11.27;3.93;;;;;;;12.56;53.13;99935.16;5392448;32;35348;-87
2022/04/06 05:52:41;;;;;;;9.23;4.43;;;;;;;13.99;48.84;99930.50;5407385;32;35594;-76
2022/04/06 05:55:45;;;;;;;11.70;5.20;;;;;;;13.42;49.54;99940.91;5393529;32;35589;-68
2022/04/06 05:58:47;;;;;;;11.97;5.03;;;;;;;13.70;49.47;99933.06;5406290;32;34278;-73
2022/04/06 06:01:50;;;;;;;10.30;4.43;;;;;;;14.27;48.22;99929.66;5408786;32;34891;-75
2022/04/06 06:04:52;;;;;;;10.03;4.57;;;;;;;14.69;46.74;99936.75;5411069;32;44733;-73
2022/04/06 06:07:54;;;;;;;14.27;4.20;;;;;;;14.31;47.30;99933.81;5416444;32;36016;-74
2022/04/06 06:10:56;;;;;;;12.73;4.73;;;;;;;14.02;48.07;99931.16;5401937;32;32738;-73
2022/04/06 06:13:58;;;;;;;9.43;4.53;;;;;;;13.47;49.50;99944.16;5416968;32;35397;-77
2022/04/06 06:17:01;;;;;;;10.80;5.17;;;;;;;13.54;49.58;99942.84;5405848;32;36597;-77
2022/04/06 06:20:04;;;;;;;9.13;4.63;;;;;;;13.26;50.27;99944.41;5409163;32;34164;-80
2022/04/06 06:23:06;;;;;;;12.30;5.10;;;;;;;13.00;51.33;99948.50;5412500;32;35429;-77
2022/04/06 06:26:09;;;;;;;10.63;5.47;;;;;;;13.14;50.60;99942.47;5401798;32;37440;-71
2022/04/06 06:29:14;;;;;;;14.23;5.17;;;;;;;13.14;50.89;99952.19;5415824;32;36302;-70
2022/04/06 06:32:16;;;;;;;12.93;5.17;;;;;;;13.27;50.66;99945.31;5410361;32;34275;-88
2022/04/06 06:35:20;;;;;;;11.77;5.47;;;;;;;13.79;49.31;99942.25;5414380;32;34105;-88
2022/04/06 06:38:22;;;;;;;11.27;4.60;;;;;;;14.83;46.61;99942.00;5402056;32;44232;-74
2022/04/06 06:41:25;;;;;;;13.30;5.30;;;;;;;15.03;45.47;99945.19;5420213;32;34140;-70
2022/04/06 06:44:27;;;;;;;11.40;5.62;;;;;;;14.83;46.03;99946.47;5410999;32;35723;-70
2022/04/06 06:47:29;;;;;;;14.90;6.53;;;;;;;15.53;44.27;99939.22;5398985;32;35089;-83
2022/04/06 06:50:32;;;;;;;13.13;5.30;;;;;;;14.79;45.55;99959.03;5406622;32;35635;-75
2022/04/06 06:53:34;;;;;;;12.20;6.10;;;;;;;15.75;43.82;99928.06;5385932;32;33987;-73
2022/04/06 06:56:37;;;;;;;11.90;6.12;;;;;;;17.36;40.56;99930.75;5399741;32;34167;-75
2022/04/06 06:59:41;;;;;;;13.23;6.40;;;;;;;17.33;41.00;99933.66;5407027;32;35325;-86
2022/04/06 07:02:43;;;;;;;13.57;6.93;;;;;;;17.92;38.57;99928.31;5423088;32;34008;-79
2022/04/06 07:05:46;;;;;;;15.00;7.35;;;;;;;19.64;35.42;99926.94;5414939;32;34097;-70
2022/04/06 07:08:48;;;;;;;15.23;8.25;;;;;;;18.31;37.73;99932.37;5408099;32;35400;-87
2022/04/06 07:11:52;;;;;;;18.05;8.85;;;;;;;18.83;36.80;99938.91;5406655;32;34853;-83
2022/04/06 07:14:55;;;;;;;16.42;8.68;;;;;;;19.85;35.44;99926.94;5411135;32;44361;-79
2022/04/06 07:17:58;;;;;;;16.55;8.73;;;;;;;20.61;33.63;99915.94;5425985;32;34164;-78
2022/04/06 07:21:01;;;;;;;19.85;10.48;;;;;;;20.61;33.82;99926.63;5411532;32;34015;-80
2022/04/06 07:24:05;;;;;;;19.42;10.32;;;;;;;20.17;34.63;99934.00;5411616;32;34845;-83
2022/04/06 07:27:07;;;;;;;20.05;10.77;;;;;;;19.49;36.13;99937.00;5421221;32;34055;-76
2022/04/06 07:30:12;;;;;;;22.20;11.68;;;;;;;20.99;33.38;99933.91;5378957;32;35895;-73
2022/04/06 07:33:15;;;;;;;19.50;11.30;;;;;;;20.38;34.37;99931.28;5422349;32;34391;-72
2022/04/06 07:36:20;;;;;;;21.65;12.32;;;;;;;20.63;33.39;99930.88;5402918;32;34184;-76
2022/04/06 07:39:22;;;;;;;22.48;12.25;;;;;;;19.91;34.60;99933.56;5408095;32;44606;-75
2022/04/06 07:42:24;;;;;;;19.25;9.50;;;;;;;19.47;35.35;99940.78;5400289;32;33987;-80
2022/04/06 07:45:27;;;;;;;;;;;;;;;21.41;31.84;99929.22;5412191;32;34081;-67
2022/04/06 07:48:30;;;;;;;14.73;9.03;;;;;;;21.65;30.76;99922.59;5397948;32;34274;-74
2022/04/06 07:51:32;;;;;;;14.30;7.95;;;;;;;21.35;30.99;99940.47;5395499;32;34164;-70
2022/04/06 07:54:34;;;;;;;14.38;8.80;;;;;;;22.98;28.58;99926.81;5423012;32;33976;-78
2022/04/06 07:57:37;;;;;;;14.60;7.50;;;;;;;23.33;27.80;99933.25;5378528;32;33939;-75
2022/04/06 08:00:40;;;;;;;9.65;5.85;;;;;;;20.32;32.68;99938.00;5418937;32;37110;-78
2022/04/06 08:03:42;;;;;;;11.82;5.90;;;;;;;21.31;30.78;99933.69;5414114;32;35436;-72
2022/04/06 08:06:45;;;;;;;10.95;6.68;;;;;;;22.14;29.08;99925.06;5412686;32;34005;-85
2022/04/06 08:09:47;;;;;;;10.55;6.12;;;;;;;23.96;26.51;99931.28;5418574;32;36780;-73
2022/04/06 08:12:50;;;;;;;12.20;5.97;;;;;;;21.73;29.26;99934.28;5403596;32;33922;-75
2022/04/06 08:15:52;;;;;;;;;;;;;;;22.07;29.21;99933.78;5423747;32;47133;-74
2022/04/06 08:18:54;;;;;;;12.37;6.33;;;;;;;21.90;29.52;99927.38;5408197;32;34331;-77
2022/04/06 08:21:56;;;;;;;15.18;6.72;;;;;;;21.55;29.89;99939.47;5423186;32;34161;-74
2022/04/06 08:24:58;;;;;;;11.20;5.95;;;;;;;20.09;32.29;99939.97;5394282;32;34349;-75
2022/04/06 08:28:20;;;;;;;13.40;7.40;;;;;;;19.45;33.77;99948.06;5417849;32;34049;-73
2022/04/06 08:31:23;;;;;;;11.80;7.28;;;;;;;21.47;30.48;99936.69;5414325;32;44690;-72
2022/04/06 08:34:25;;;;;;;12.80;6.65;;;;;;;21.66;30.11;99932.31;5411767;32;35781;-77
2022/04/06 08:37:31;;;;;;;10.57;6.35;;;;;;;24.03;26.87;99920.78;5425711;32;34337;-79
2022/04/06 08:40:35;;;;;;;11.88;6.47;;;;;;;23.77;27.04;99926.13;5406600;32;34872;-72
2022/04/06 08:43:37;;;;;;;15.43;6.07;;;;;;;22.62;28.46;99926.72;5420724;32;34260;-74
2022/04/06 08:46:40;;;;;;;15.57;7.40;;;;;;;22.97;27.97;99922.47;5411693;32;34163;-66
2022/04/06 08:49:42;;;;;;;13.23;6.12;;;;;;;22.76;28.31;99925.37;5390019;32;35371;-71
2022/04/06 08:52:45;;;;;;;10.15;5.28;;;;;;;25.16;24.70;99916.94;5425458;32;34070;-76
2022/04/06 08:56:03;;;;;;;9.90;6.15;;;;;;;24.42;25.61;99910.44;5388599;32;33963;-68
2022/04/06 08:59:05;;;;;;;11.07;6.40;;;;;;;23.59;26.83;99926.09;5421261;32;34095;-75
2022/04/06 09:02:07;;;;;;;10.05;5.87;;;;;;;24.11;26.47;99919.97;5412631;32;34123;-69
2022/04/06 09:05:13;;;;;;;10.27;5.47;;;;;;;25.19;24.80;99922.00;5415007;32;35638;-70
2022/04/06 09:08:15;;;;;;;11.07;5.65;;;;;;;22.67;28.35;99924.44;5424374;32;34142;-77
2022/04/06 09:11:20;;;;;;;9.55;4.90;;;;;;;23.01;27.71;99921.19;5409969;32;35898;-75
2022/04/06 09:14:30;;;;;;;12.07;5.47;;;;;;;25.01;24.51;99907.81;5427696;32;44330;-85
2022/04/06 09:17:43;;;;;;;10.65;5.75;;;;;;;23.59;26.69;99923.41;5404003;32;34395;-86
2022/04/06 09:20:45;;;;;;;14.35;7.20;;;;;;;26.43;22.91;99916.41;5403057;32;34200;-73
2022/04/06 09:23:48;;;;;;;10.73;5.47;;;;;;;25.21;24.73;99909.22;5394197;32;34677;-71
2022/04/06 09:26:58;;;;;;;9.02;5.32;;;;;;;25.83;23.48;99908.78;5415116;32;37802;-68
2022/04/06 09:30:03;;;;;;;9.80;5.90;;;;;;;25.16;23.97;99897.28;5408746;32;34330;-75
2022/04/06 09:33:14;;;;;;;8.95;5.55;;;;;;;26.50;22.68;99897.69;5412154;32;34205;-75
2022/04/06 09:36:18;;;;;;;14.20;5.72;;;;;;;25.21;24.29;99895.78;5416507;32;37327;-73
2022/04/06 09:39:40;;;;;;;11.48;5.95;;;;;;;23.91;26.53;99905.91;5411990;32;33978;-77
2022/04/06 09:42:51;;;;;;;11.23;5.60;;;;;;;25.53;24.20;99886.87;5404244;32;33985;-70
2022/04/06 09:49:20;;;;;;;11.65;5.70;;;;;;;27.27;21.62;99861.72;5413649;32;36085;-74
2022/04/06 09:52:23;;;;;;;8.27;5.05;;;;;;;26.92;22.52;99867.66;5413059;32;44015;-71
2022/04/06 09:55:25;;;;;;;;;;;;;;;26.78;22.44;99869.25;5378743;32;34288;-78
2022/04/06 09:58:28;;;;;;;10.85;6.28;;;;;;;26.22;23.10;99852.31;5401545;32;32884;-71
2022/04/06 10:01:33;;;;;;;10.23;6.05;;;;;;;25.27;24.70;99860.16;5410041;32;35793;-68
2022/04/06 10:04:37;;;;;;;9.63;5.78;;;;;;;24.59;25.84;99857.63;5411939;32;34094;-70
2022/04/06 10:07:41;;;;;;;11.27;6.40;;;;;;;25.18;25.01;99852.22;5425909;32;34149;-73
2022/04/06 10:10:45;;;;;;;9.20;5.95;;;;;;;26.17;23.56;99843.91;5410069;32;35216;-84
2022/04/06 10:13:47;;;;;;;9.75;6.00;;;;;;;25.72;24.00;99842.63;5405010;32;33711;-79
2022/04/06 10:16:58;;;;;;;13.73;7.20;;;;;;;27.92;21.12;99832.47;5408029;32;45349;-72
2022/04/06 10:20:17;;;;;;;9.82;5.70;;;;;;;25.56;24.30;99834.56;5408603;32;34512;-73
2022/04/06 10:23:49;;;;;;;11.12;6.18;;;;;;;28.95;19.66;99820.72;5426506;32;44557;-75
2022/04/06 10:27:23;;;;;;;10.00;6.40;;;;;;;27.27;21.39;99817.72;5407860;32;45725;-84
2022/04/06 10:30:27;;;;;;;10.25;6.75;;;;;;;26.52;22.45;99820.22;5408006;32;45101;-79
2022/04/06 10:33:30;;;;;;;11.38;6.90;;;;;;;27.63;21.23;99817.03;5421650;32;35623;-79
2022/04/06 10:36:32;;;;;;;10.65;6.15;;;;;;;27.11;22.04;99815.12;5408932;32;34087;-79
2022/04/06 10:39:55;;;;;;;12.23;6.40;;;;;;;29.12;19.66;99809.47;5405015;32;35323;-72
2022/04/06 10:42:58;;;;;;;10.68;6.45;;;;;;;27.79;20.91;99809.66;5413531;32;43276;-72
2022/04/06 10:46:01;;;;;;;10.55;6.80;;;;;;;26.45;22.51;99810.13;5376275;32;35879;-74
2022/04/06 10:49:06;;;;;;;11.85;6.85;;;;;;;24.54;24.71;99806.25;5403813;32;35487;-80
2022/04/06 10:52:25;;;;;;;10.57;6.82;;;;;;;25.15;24.45;99804.19;5401541;32;35468;-74
2022/04/06 10:55:29;;;;;;;9.18;6.28;;;;;;;26.61;22.64;99803.84;5411495;32;44279;-72
2022/04/06 10:58:56;;;;;;;9.23;5.30;;;;;;;25.99;23.10;99800.22;5394856;32;36006;-73
2022/04/06 11:02:21;;;;;;;12.35;5.60;;;;;;;24.82;23.87;99791.53;5406815;32;44612;-74
2022/04/06 11:05:47;;;;;;;9.30;5.30;;;;;;;25.12;23.38;99786.53;5422282;32;45971;-68
2022/04/06 11:12:18;;;;;;;9.98;5.32;;;;;;;26.48;21.89;99775.78;5415866;32;34049;-72
2022/04/06 11:15:21;;;;;;;10.25;4.97;;;;;;;26.52;21.82;99772.53;5390718;32;34623;-73
2022/04/06 11:18:42;;;;;;;;;;;;;;;26.64;21.56;99770.28;5393653;32;34106;-71
2022/04/06 11:21:52;;;;;;;7.85;4.65;;;;;;;27.33;20.93;99763.03;5421682;32;35788;-69
2022/04/06 11:24:55;;;;;;;9.23;5.47;;;;;;;27.78;20.15;99753.97;5410519;32;44991;-70
2022/04/06 11:28:08;;;;;;;12.32;5.32;;;;;;;28.55;19.08;99739.16;5404511;32;34112;-70
2022/04/06 11:31:11;;;;;;;9.77;5.45;;;;;;;28.10;19.98;99751.06;5416692;32;35425;-70
2022/04/06 11:34:38;;;;;;;10.18;5.25;;;;;;;26.46;21.31;99747.16;5413546;32;34140;-71
2022/04/06 11:37:41;;;;;;;10.77;5.15;;;;;;;27.46;20.25;99733.56;5418165;32;34340;-72
2022/04/06 11:40:44;;;;;;;10.75;5.68;;;;;;;26.34;21.53;99732.41;5400274;32;34132;-77
2022/04/06 11:43:49;;;;;;;9.65;5.12;;;;;;;28.55;19.10;99722.94;5413293;32;34694;-70
2022/04/06 11:46:52;;;;;;;9.73;5.32;;;;;;;31.14;16.53;99704.31;5415437;32;46606;-75
2022/04/06 11:49:55;;;;;;;14.13;6.80;;;;;;;30.45;17.04;99715.47;5397043;32;35178;-70
2022/04/06 11:53:18;;;;;;;9.48;5.85;;;;;;;28.87;18.94;99706.19;5417525;32;35398;-73
2022/04/06 11:56:22;;;;;;;12.00;6.20;;;;;;;29.24;18.70;99690.72;5386020;32;36245;-75
2022/04/06 11:59:25;;;;;;;10.85;6.87;;;;;;;27.39;20.85;99697.53;5396521;32;34390;-77
2022/04/06 12:02:28;;;;;;;12.25;7.90;;;;;;;29.29;18.77;99681.97;5396788;32;32855;-73
2022/04/06 12:05:33;;;;;;;13.70;7.57;;;;;;;27.31;20.68;99686.84;5413440;32;33967;-73
2022/04/06 12:08:36;;;;;;;16.12;8.70;;;;;;;26.73;22.09;99682.97;5411656;32;35333;-78
2022/04/06 12:11:42;;;;;;;13.30;8.15;;;;;;;29.22;19.03;99670.28;5396357;32;34789;-69
2022/04/06 12:14:45;;;;;;;15.27;8.55;;;;;;;28.70;19.80;99666.94;5424310;32;34926;-69
2022/04/06 12:17:48;;;;;;;13.32;8.05;;;;;;;30.82;17.77;99656.31;5415885;32;35680;-79
2022/04/06 12:20:51;;;;;;;13.77;7.60;;;;;;;29.48;18.62;99651.50;5413438;32;35412;-75
2022/04/06 12:23:54;;;;;;;12.75;8.90;;;;;;;32.78;15.08;99635.06;5409137;32;46548;-70
2022/04/06 12:26:56;;;;;;;13.00;8.82;;;;;;;30.37;17.72;99639.78;5413906;32;34190;-80
2022/04/06 12:30:07;;;;;;;16.40;8.93;;;;;;;32.53;15.65;99618.75;5407427;32;34083;-71
2022/04/06 12:33:09;;;;;;;14.48;9.07;;;;;;;30.81;16.96;99622.09;5399326;32;34052;-77
2022/04/06 12:36:16;;;;;;;17.37;9.70;;;;;;;31.44;16.12;99617.00;5422630;32;34230;-86
2022/04/06 12:39:18;;;;;;;11.07;8.13;;;;;;;33.20;14.96;99606.22;5411325;32;35468;-72
2022/04/06 12:42:22;;;;;;;13.32;8.73;;;;;;;31.90;16.07;99607.84;5421101;32;36147;-79
2022/04/06 12:45:24;;;;;;;14.30;10.77;;;;;;;28.75;18.90;99607.69;5414629;32;44231;-75
2022/04/06 12:48:28;;;;;;;14.90;8.65;;;;;;;28.65;19.12;99598.25;5412895;32;34840;-84
2022/04/06 12:51:43;;;;;;;14.07;8.85;;;;;;;29.55;18.44;99597.41;5419832;32;33903;-78
2022/04/06 12:55:13;;;;;;;;;;;;;;;29.32;18.55;99595.81;5401237;32;35391;-76
2022/04/06 12:58:21;;;;;;;13.07;8.43;;;;;;;28.07;20.08;99588.34;5397821;32;34902;-72
2022/04/06 13:01:23;;;;;;;12.10;7.78;;;;;;;30.15;17.52;99582.22;5410560;32;45184;-72
2022/04/06 13:04:26;;;;;;;15.73;7.75;;;;;;;30.91;16.66;99568.22;5408896;32;34896;-75
2022/04/06 13:07:29;;;;;;;10.95;7.43;;;;;;;28.24;19.43;99575.44;5412056;32;34058;-87
2022/04/06 13:10:40;;;;;;;12.13;7.55;;;;;;;31.10;16.39;99563.81;5401539;32;34608;-74
2022/04/06 13:13:42;;;;;;;13.20;8.02;;;;;;;28.32;18.67;99560.97;5387420;32;33242;-74
2022/04/06 13:16:44;;;;;;;13.13;8.02;;;;;;;25.83;21.79;99565.09;5406547;32;34233;-81
2022/04/06 13:19:47;;;;;;;10.98;7.70;;;;;;;24.13;24.54;99563.59;5416723;32;33220;-80
2022/04/06 13:22:52;;;;;;;12.13;6.50;;;;;;;23.72;24.84;99559.03;5427453;32;35161;-73
2022/04/06 13:25:54;;;;;;;13.13;7.53;;;;;;;24.01;24.17;99545.13;5391096;32;44621;-73
2022/04/06 13:28:56;;;;;;;13.62;7.40;;;;;;;23.27;25.49;99545.94;5417359;32;34109;-74
2022/04/06 13:31:59;;;;;;;12.23;7.15;;;;;;;22.36;26.65;99545.56;5410496;32;35207;-87
2022/04/06 13:35:01;;;;;;;13.38;7.50;;;;;;;23.23;25.51;99532.03;5429013;32;34150;-73
2022/04/06 13:38:03;;;;;;;12.57;7.28;;;;;;;22.51;26.58;99529.78;5421901;32;34692;-77
2022/04/06 13:41:05;;;;;;;10.13;5.68;;;;;;;22.86;26.01;99523.44;5417471;32;34914;-75
2022/04/06 13:44:09;;;;;;;10.27;5.78;;;;;;;22.75;25.82;99521.06;5411304;32;34999;-86
2022/04/06 13:47:12;;;;;;;13.27;6.78;;;;;;;23.43;24.92;99510.28;5404712;32;34545;-83
2022/04/06 13:50:14;;;;;;;11.85;6.70;;;;;;;22.50;25.87;99509.34;5415317;32;34552;-71
2022/04/06 13:53:16;;;;;;;15.13;7.62;;;;;;;22.23;26.37;99500.47;5414990;32;36809;-77
2022/04/06 13:56:19;;;;;;;10.60;6.35;;;;;;;22.42;26.36;99497.59;5405614;32;34115;-71
2022/04/06 13:59:21;;;;;;;13.88;6.75;;;;;;;23.27;24.95;99488.81;5399626;32;35502;-71
2022/04/06 14:02:23;;;;;;;12.48;6.78;;;;;;;22.96;25.41;99490.22;5416707;32;33996;-82
2022/04/06 14:05:25;;;;;;;14.02;7.05;;;;;;;22.24;26.39;99485.25;5428551;32;34755;-80
2022/04/06 14:08:27;;;;;;;12.70;6.55;;;;;;;22.06;27.21;99480.72;5414770;32;34070;-77
2022/04/06 14:11:30;;;;;;;12.63;6.62;;;;;;;21.64;27.73;99477.88;5425208;32;34749;-75
2022/04/06 14:14:32;;;;;;;14.25;7.78;;;;;;;21.52;28.37;99474.56;5416239;32;35054;-75
2022/04/06 14:17:35;;;;;;;16.83;8.95;;;;;;;21.45;28.64;99470.84;5419215;32;35371;-82
2022/04/06 14:20:37;;;;;;;;;;;;;;;21.99;28.14;99463.62;5417571;32;33818;-68
2022/04/06 14:23:40;;;;;;;14.63;7.55;;;;;;;22.11;27.93;99457.06;5409291;32;35781;-77
2022/04/06 14:26:44;;;;;;;13.82;8.45;;;;;;;22.29;27.87;99450.84;5409973;32;33555;-68
2022/04/06 14:29:46;;;;;;;13.77;7.95;;;;;;;22.07;28.10;99449.47;5406329;32;33615;-74
2022/04/06 14:32:49;;;;;;;13.65;8.13;;;;;;;23.00;26.87;99439.00;5401593;32;34359;-74
2022/04/06 14:35:51;;;;;;;16.02;8.60;;;;;;;22.32;27.87;99431.75;5405484;32;37717;-78
2022/04/06 14:38:53;;;;;;;13.70;7.60;;;;;;;22.31;27.82;99430.09;5407252;32;35814;-75